createdAt,value
2022-12-14T00:01:41.016Z,100331.22
2022-12-14T00:04:07.540Z,100323.00
2022-12-14T00:06:34.398Z,100327.78
2022-12-14T00:09:03.347Z,100314.75
2022-12-14T00:11:31.756Z,100312.59
2022-12-14T00:14:00.561Z,100309.94
2022-12-14T00:16:31.024Z,100306.50
2022-12-14T00:18:59.598Z,100301.53
2022-12-14T00:21:27.141Z,100294.44
2022-12-14T00:23:55.315Z,100296.09
2022-12-14T00:26:32.387Z,100287.19
2022-12-14T00:29:01.006Z,100289.84
2022-12-14T00:31:28.156Z,100287.84
2022-12-14T00:33:55.375Z,100288.69
2022-12-14T00:36:23.650Z,100282.91
2022-12-14T00:38:51.107Z,100279.59
2022-12-14T00:41:17.555Z,100287.19
2022-12-14T00:43:44.130Z,100285.22
2022-12-14T00:46:10.706Z,100287.53
2022-12-14T00:48:37.231Z,100286.88
2022-12-14T00:51:04.040Z,100288.34
2022-12-14T00:53:31.076Z,100274.50
2022-12-14T00:55:57.627Z,100275.16
2022-12-14T00:58:25.231Z,100272.19
2022-12-14T01:01:00.966Z,100272.19
2022-12-14T01:03:28.383Z,100278.75
2022-12-14T01:05:55.234Z,100274.50
2022-12-14T01:08:22.219Z,100264.09
2022-12-14T01:10:50.355Z,100277.28
2022-12-14T01:13:17.261Z,100272.19
2022-12-14T01:15:43.964Z,100278.28
2022-12-14T01:18:10.448Z,100276.13
2022-12-14T01:20:36.883Z,100276.13
2022-12-14T01:23:03.338Z,100265.91
2022-12-14T01:25:29.818Z,100266.41
2022-12-14T01:27:56.551Z,100264.91
2022-12-14T01:30:23.024Z,100265.22
2022-12-14T01:32:49.619Z,100250.09
2022-12-14T01:35:17.401Z,100258.00
2022-12-14T01:37:43.965Z,100256.66
2022-12-14T01:40:10.702Z,100255.06
2022-12-14T01:42:37.724Z,100251.91
2022-12-14T01:45:05.799Z,100248.75
2022-12-14T01:47:43.467Z,100248.44
2022-12-14T01:50:21.070Z,100239.31
2022-12-14T01:52:49.648Z,100250.25
2022-12-14T01:55:24.652Z,100239.69
2022-12-14T01:58:06.997Z,100233.06
2022-12-14T02:00:33.425Z,100231.06
2022-12-14T02:03:12.600Z,100223.81
2022-12-14T02:05:44.075Z,100222.66
2022-12-14T02:08:11.868Z,100226.66
2022-12-14T02:10:38.549Z,100220.88
2022-12-14T02:13:14.753Z,100225.31
2022-12-14T02:15:42.235Z,100219.06
2022-12-14T02:18:14.640Z,100215.94
2022-12-14T02:21:22.685Z,100207.31
2022-12-14T02:24:18.494Z,100209.81
2022-12-14T02:27:01.206Z,100205.69
2022-12-14T02:29:40.000Z,100200.41
2022-12-14T02:32:21.550Z,100198.59
2022-12-14T02:35:28.068Z,100196.13
2022-12-14T02:38:27.687Z,100192.03
2022-12-14T02:41:20.941Z,100194.34
2022-12-14T02:43:47.499Z,100192.53
2022-12-14T02:46:21.199Z,100185.75
2022-12-14T02:49:15.295Z,100184.94
2022-12-14T02:52:02.684Z,100185.25
2022-12-14T02:54:42.064Z,100180.31
2022-12-14T02:57:15.657Z,100172.25
2022-12-14T02:59:43.444Z,100174.38
2022-12-14T03:02:10.917Z,100165.16
2022-12-14T03:04:45.817Z,100159.38
2022-12-14T03:07:31.558Z,100169.25
2022-12-14T03:10:32.477Z,100164.31
2022-12-14T03:13:16.474Z,100155.59
2022-12-14T03:15:47.306Z,100157.91
2022-12-14T03:18:19.560Z,100149.81
2022-12-14T03:20:51.987Z,100147.22
2022-12-14T03:23:22.757Z,100140.13
2022-12-14T03:26:01.424Z,100144.75
2022-12-14T03:28:36.051Z,100136.03
2022-12-14T03:31:13.473Z,100129.41
2022-12-14T03:33:42.678Z,100130.25
2022-12-14T03:36:17.083Z,100129.59
2022-12-14T03:38:48.904Z,100127.44
2022-12-14T03:41:36.779Z,100119.88
2022-12-14T03:44:29.362Z,100119.03
2022-12-14T03:47:46.513Z,100119.22
2022-12-14T03:50:31.597Z,100112.03
2022-12-14T03:53:06.462Z,100115.31
2022-12-14T03:56:15.396Z,100111.03
2022-12-14T03:59:18.280Z,100098.34
2022-12-14T04:01:55.534Z,100093.91
2022-12-14T04:04:33.345Z,100088.63
2022-12-14T04:07:10.035Z,100087.50
2022-12-14T04:10:39.041Z,100087.34
2022-12-14T04:13:30.598Z,100081.06
2022-12-14T04:16:19.953Z,100087.34
2022-12-14T04:19:02.209Z,100084.03
2022-12-14T04:21:43.476Z,100086.84
2022-12-14T04:24:35.920Z,100085.84
2022-12-14T04:27:10.820Z,100087.34
2022-12-14T04:29:59.127Z,100077.28
2022-12-14T04:32:28.629Z,100072.66
2022-12-14T04:35:03.668Z,100079.59
2022-12-14T04:37:31.181Z,100069.53
2022-12-14T04:40:14.736Z,100077.44
2022-12-14T04:42:49.775Z,100082.56
2022-12-14T04:45:25.781Z,100071.69
2022-12-14T04:48:00.030Z,100068.72
2022-12-14T04:50:35.425Z,100063.47
2022-12-14T04:53:13.920Z,100055.72
2022-12-14T04:55:49.391Z,100056.84
2022-12-14T04:58:28.265Z,100050.94
2022-12-14T05:01:21.204Z,100049.28
2022-12-14T05:04:12.954Z,100046.16
2022-12-14T05:06:54.430Z,100048.63
2022-12-14T05:09:43.041Z,100041.03
2022-12-14T05:12:21.197Z,100038.75
2022-12-14T05:15:17.547Z,100034.16
2022-12-14T05:17:44.522Z,100031.19
2022-12-14T05:20:17.368Z,100032.19
2022-12-14T05:22:44.513Z,100037.28
2022-12-14T05:25:11.491Z,100029.69
2022-12-14T05:27:38.153Z,100029.38
2022-12-14T05:30:06.559Z,100032.97
2022-12-14T05:32:33.657Z,100026.41
2022-12-14T05:35:00.261Z,100011.75
2022-12-14T05:37:27.270Z,100014.06
2022-12-14T05:39:54.594Z,100016.03
2022-12-14T05:42:21.531Z,100007.66
2022-12-14T05:44:48.104Z,100006.66
2022-12-14T05:47:14.793Z,99997.94
2022-12-14T05:49:41.396Z,100001.56
2022-12-14T05:52:07.840Z,99997.94
2022-12-14T05:54:34.242Z,99999.09
2022-12-14T05:57:00.697Z,99996.13
2022-12-14T05:59:27.304Z,99991.53
2022-12-14T06:01:54.114Z,99990.53
2022-12-14T06:04:20.777Z,99987.88
2022-12-14T06:06:47.412Z,99982.44
2022-12-14T06:09:16.719Z,99980.16
2022-12-14T06:11:44.609Z,99974.38
2022-12-14T06:14:12.512Z,99972.94
2022-12-14T06:16:44.188Z,99980.50
2022-12-14T06:19:12.134Z,99971.09
2022-12-14T06:21:40.148Z,99971.75
2022-12-14T06:24:07.599Z,99960.41
2022-12-14T06:26:40.768Z,99959.28
2022-12-14T06:29:08.634Z,99955.63
2022-12-14T06:31:35.091Z,99958.94
2022-12-14T06:34:03.203Z,99957.28
2022-12-14T06:36:32.669Z,99959.13
2022-12-14T06:39:05.291Z,99949.72
2022-12-14T06:41:32.364Z,99946.13
2022-12-14T06:44:05.493Z,99942.16
2022-12-14T06:46:32.369Z,99939.03
2022-12-14T06:48:59.048Z,99938.88
2022-12-14T06:51:26.049Z,99939.50
2022-12-14T06:53:54.498Z,99935.59
2022-12-14T06:56:22.239Z,99937.22
2022-12-14T06:58:48.809Z,99940.00
2022-12-14T07:01:23.843Z,99936.22
2022-12-14T07:03:55.526Z,99933.28
2022-12-14T07:06:23.463Z,99933.44
2022-12-14T07:08:53.580Z,99930.00
2022-12-14T07:11:20.476Z,99920.91
2022-12-14T07:13:48.898Z,99925.38
2022-12-14T07:16:20.514Z,99928.97
2022-12-14T07:18:47.505Z,99925.03
2022-12-14T07:21:15.801Z,99923.56
2022-12-14T07:23:44.222Z,99926.34
2022-12-14T07:26:14.747Z,99921.25
2022-12-14T07:28:42.299Z,99919.63
2022-12-14T07:31:20.919Z,99920.09
2022-12-14T07:33:48.339Z,99920.59
2022-12-14T07:36:20.365Z,99923.06
2022-12-14T07:38:49.432Z,99920.91
2022-12-14T07:41:22.848Z,99933.44
2022-12-14T07:43:51.347Z,99930.81
2022-12-14T07:46:21.661Z,99921.25
2022-12-14T07:48:53.964Z,99924.88
2022-12-14T07:51:28.598Z,99926.84
2022-12-14T07:53:56.217Z,99912.38
2022-12-14T07:56:25.226Z,99906.78
2022-12-14T07:58:52.625Z,99919.94
2022-12-14T08:01:22.368Z,99918.63
2022-12-14T08:03:55.540Z,99921.09
2022-12-14T08:06:24.158Z,99916.66
2022-12-14T08:08:51.627Z,99909.91
2022-12-14T08:11:18.867Z,99927.19
2022-12-14T08:13:46.773Z,99919.78
2022-12-14T08:16:15.985Z,99926.34
2022-12-14T08:18:43.973Z,99922.75
2022-12-14T08:21:12.212Z,99928.97
2022-12-14T08:23:39.082Z,99926.84
2022-12-14T08:26:06.480Z,99921.72
2022-12-14T08:28:34.090Z,99927.16
2022-12-14T08:31:06.661Z,99919.41
2022-12-14T08:33:34.568Z,99918.59
2022-12-14T08:36:08.840Z,99916.94
2022-12-14T08:38:36.276Z,99911.00
2022-12-14T08:41:07.826Z,99922.88
2022-12-14T08:43:34.879Z,99921.84
2022-12-14T08:46:03.817Z,99923.19
2022-12-14T08:48:30.661Z,99921.66
2022-12-14T08:51:10.434Z,99918.69
2022-12-14T08:53:38.336Z,99914.06
2022-12-14T08:56:10.564Z,99918.38
2022-12-14T08:58:37.971Z,99912.63
2022-12-14T09:01:09.528Z,99920.97
2022-12-14T09:03:36.154Z,99914.22
2022-12-14T09:06:07.934Z,99917.00
2022-12-14T09:08:35.283Z,99915.56
2022-12-14T09:11:03.109Z,99917.34
2022-12-14T09:13:30.196Z,99916.19
2022-12-14T09:16:02.360Z,99910.47
2022-12-14T09:18:31.336Z,99916.88
2022-12-14T09:20:58.017Z,99912.78
2022-12-14T09:23:27.056Z,99913.44
2022-12-14T09:26:14.107Z,99910.47
2022-12-14T09:28:42.506Z,99910.94
2022-12-14T09:31:12.593Z,99906.31
2022-12-14T09:33:39.429Z,99911.09
2022-12-14T09:36:09.151Z,99914.03
2022-12-14T09:38:37.397Z,99922.44
2022-12-14T09:41:19.780Z,99917.63
2022-12-14T09:43:53.433Z,99905.66
2022-12-14T09:46:23.777Z,99909.59
2022-12-14T09:48:52.252Z,99899.75
2022-12-14T09:51:21.223Z,99909.56
2022-12-14T09:53:51.504Z,99897.25
2022-12-14T09:56:20.570Z,99900.34
2022-12-14T09:58:56.079Z,99903.28
2022-12-14T10:01:22.850Z,99906.41
2022-12-14T10:04:06.655Z,99904.41
2022-12-14T10:06:58.235Z,99893.31
2022-12-14T10:09:49.265Z,99895.41
2022-12-14T10:13:00.888Z,99882.34
2022-12-14T10:15:59.601Z,99882.59
2022-12-14T10:19:11.517Z,99879.59
2022-12-14T10:22:18.333Z,99871.28
2022-12-14T10:25:05.609Z,99866.22
2022-12-14T10:28:01.256Z,99863.69
2022-12-14T10:30:21.349Z,99863.56
2022-12-14T10:32:54.366Z,99848.94
2022-12-14T10:35:38.158Z,99851.59
2022-12-14T10:38:11.019Z,99848.25
2022-12-14T10:40:49.329Z,99850.16
2022-12-14T10:43:43.330Z,99857.84
2022-12-14T10:46:31.288Z,99841.31
2022-12-14T10:49:36.133Z,99848.53
2022-12-14T10:52:08.753Z,99853.19
2022-12-14T10:54:40.800Z,99841.19
2022-12-14T10:57:07.265Z,99846.31
2022-12-14T10:59:44.592Z,99846.28
2022-12-14T11:02:22.496Z,99834.38
2022-12-14T11:04:59.573Z,99835.44
2022-12-14T11:07:38.374Z,99834.94
2022-12-14T11:10:32.396Z,99837.34
2022-12-14T11:13:06.049Z,99833.59
2022-12-14T11:15:34.826Z,99823.75
2022-12-14T11:18:16.899Z,99826.84
2022-12-14T11:20:57.258Z,99827.94
2022-12-14T11:23:27.899Z,99818.78
2022-12-14T11:25:57.770Z,99815.44
2022-12-14T11:28:39.894Z,99815.97
2022-12-14T11:31:27.120Z,99813.19
2022-12-14T11:33:56.996Z,99820.44
2022-12-14T11:36:43.116Z,99814.97
2022-12-14T11:39:15.645Z,99816.81
2022-12-14T11:41:46.571Z,99810.75
2022-12-14T11:44:16.135Z,99811.63
2022-12-14T11:46:46.089Z,99803.66
2022-12-14T11:49:23.776Z,99787.00
2022-12-14T11:52:05.267Z,99799.06
2022-12-14T11:54:33.265Z,99795.97
2022-12-14T11:57:04.004Z,99795.78
2022-12-14T11:59:38.464Z,99795.59
2022-12-14T12:02:17.874Z,99791.34
2022-12-14T12:04:53.895Z,99788.75
2022-12-14T12:07:28.215Z,99788.16
2022-12-14T12:09:55.334Z,99797.19
2022-12-14T12:12:23.440Z,99789.63
2022-12-14T12:14:55.703Z,99798.78
2022-12-14T12:17:43.442Z,99791.03
2022-12-14T12:20:30.510Z,99781.06
2022-12-14T12:23:11.639Z,99786.78
2022-12-14T12:25:39.732Z,99780.03
2022-12-14T12:28:20.781Z,99775.34
2022-12-14T12:30:54.630Z,99775.56
2022-12-14T12:33:47.667Z,99773.94
2022-12-14T12:36:22.012Z,99770.88
2022-12-14T12:39:02.809Z,99775.38
2022-12-14T12:41:41.282Z,99771.28
2022-12-14T12:44:21.087Z,99771.66
2022-12-14T12:47:23.971Z,99776.38
2022-12-14T12:49:48.397Z,99768.38
2022-12-14T12:52:27.672Z,99774.69
2022-12-14T12:55:14.783Z,99764.06
2022-12-14T12:57:45.081Z,99757.50
2022-12-14T13:00:27.262Z,99760.16
2022-12-14T13:03:09.776Z,99761.19
2022-12-14T13:05:48.724Z,99762.63
2022-12-14T13:08:35.769Z,99757.91
2022-12-14T13:11:29.293Z,99748.50
2022-12-14T13:14:02.668Z,99755.69
2022-12-14T13:16:34.880Z,99752.63
2022-12-14T13:19:48.108Z,99747.69
2022-12-14T13:22:06.398Z,99749.56
2022-12-14T13:24:34.604Z,99761.22
2022-12-14T13:27:19.178Z,99756.31
2022-12-14T13:30:13.385Z,99749.16
2022-12-14T13:32:49.114Z,99749.53
2022-12-14T13:35:37.485Z,99745.25
2022-12-14T13:38:13.093Z,99748.31
2022-12-14T13:41:02.620Z,99749.97
2022-12-14T13:43:54.692Z,99742.59
2022-12-14T13:46:26.994Z,99752.84
2022-12-14T13:49:00.678Z,99749.38
2022-12-14T13:51:40.237Z,99747.53
2022-12-14T13:54:20.615Z,99743.50
2022-12-14T13:56:47.293Z,99738.78
2022-12-14T13:59:38.354Z,99739.59
2022-12-14T14:02:06.708Z,99745.53
2022-12-14T14:04:35.528Z,99747.38
2022-12-14T14:07:23.571Z,99744.50
2022-12-14T14:09:55.889Z,99749.41
2022-12-14T14:12:44.828Z,99744.31
2022-12-14T14:15:35.829Z,99744.31
2022-12-14T14:18:12.289Z,99750.22
2022-12-14T14:20:58.553Z,99748.81
2022-12-14T14:23:31.207Z,99753.06
2022-12-14T14:26:17.698Z,99754.72
2022-12-14T14:28:45.684Z,99754.31
2022-12-14T14:31:16.296Z,99756.97
2022-12-14T14:33:55.038Z,99757.16
2022-12-14T14:36:33.630Z,99754.50
2022-12-14T14:39:02.056Z,99750.81
2022-12-14T14:41:36.074Z,99761.00
2022-12-14T14:44:17.457Z,99759.81
2022-12-14T14:46:49.543Z,99761.41
2022-12-14T14:49:36.483Z,99773.44
2022-12-14T14:52:41.951Z,99759.56
2022-12-14T14:55:54.989Z,99770.78
2022-12-14T14:58:36.865Z,99769.31
2022-12-14T15:01:06.454Z,99774.00
2022-12-14T15:04:02.041Z,99770.31
2022-12-14T15:06:37.878Z,99763.34
2022-12-14T15:09:17.866Z,99767.78
2022-12-14T15:11:51.672Z,99780.84
2022-12-14T15:14:46.629Z,99790.75
2022-12-14T15:17:17.922Z,99791.34
2022-12-14T15:19:53.252Z,99794.94
2022-12-14T15:22:41.599Z,99795.34
2022-12-14T15:25:24.147Z,99790.06
2022-12-14T15:27:51.873Z,99787.88
2022-12-14T15:30:27.037Z,99789.09
2022-12-14T15:32:57.963Z,99782.53
2022-12-14T15:35:28.311Z,99790.06
2022-12-14T15:38:00.107Z,99796.19
2022-12-14T15:40:32.629Z,99791.88
2022-12-14T15:43:15.228Z,99790.41
2022-12-14T15:45:44.491Z,99787.16
2022-12-14T15:48:14.136Z,99782.44
2022-12-14T15:50:45.275Z,99785.03
2022-12-14T15:53:18.478Z,99785.84
2022-12-14T15:55:56.395Z,99784.56
2022-12-14T15:58:37.763Z,99791.75
2022-12-14T16:01:17.624Z,99791.41
2022-12-14T16:03:49.292Z,99784.44
2022-12-14T16:06:17.687Z,99799.84
2022-12-14T16:08:51.705Z,99796.28
2022-12-14T16:11:27.215Z,99795.41
2022-12-14T16:13:56.933Z,99804.75
2022-12-14T16:16:23.658Z,99804.28
2022-12-14T16:18:51.271Z,99802.34
2022-12-14T16:21:34.018Z,99801.91
2022-12-14T16:24:20.873Z,99807.13
2022-12-14T16:26:58.347Z,99816.84
2022-12-14T16:29:28.671Z,99817.59
2022-12-14T16:32:07.693Z,99818.31
2022-12-14T16:34:34.379Z,99819.09
2022-12-14T16:39:50.949Z,99821.47
2022-12-14T16:42:26.143Z,99820.47
2022-12-14T16:44:56.139Z,99826.47
2022-12-14T16:47:34.569Z,99829.59
2022-12-14T16:50:01.332Z,99833.69
2022-12-14T16:52:30.836Z,99826.63
2022-12-14T16:55:11.786Z,99822.56
2022-12-14T16:57:55.637Z,99811.72
2022-12-14T17:00:25.402Z,99819.88
2022-12-14T17:03:04.964Z,99817.16
2022-12-14T17:05:56.466Z,99816.63
2022-12-14T17:08:23.086Z,99818.06
2022-12-14T17:10:50.207Z,99819.44
2022-12-14T17:13:17.007Z,99817.34
2022-12-14T17:16:04.555Z,99811.44
2022-12-14T17:18:39.003Z,99822.56
2022-12-14T17:21:07.597Z,99825.19
2022-12-14T17:23:38.679Z,99827.56
2022-12-14T17:26:05.213Z,99824.22
2022-12-14T17:28:34.529Z,99824.56
2022-12-14T17:31:02.794Z,99826.41
2022-12-14T17:33:31.325Z,99824.22
2022-12-14T17:35:58.124Z,99823.84
2022-12-14T17:38:24.786Z,99821.13
2022-12-14T17:40:53.701Z,99821.84
2022-12-14T17:43:24.840Z,99823.00
2022-12-14T17:45:52.604Z,99826.03
2022-12-14T17:48:19.683Z,99830.13
2022-12-14T17:50:49.718Z,99829.66
2022-12-14T17:53:21.258Z,99845.88
2022-12-14T17:55:48.068Z,99847.72
2022-12-14T17:58:14.636Z,99840.06
2022-12-14T18:00:59.834Z,99838.66
2022-12-14T18:03:29.675Z,99829.31
2022-12-14T18:05:58.005Z,99832.75
2022-12-14T18:08:26.447Z,99833.78
2022-12-14T18:10:59.581Z,99841.03
2022-12-14T18:13:27.609Z,99843.50
2022-12-14T18:15:54.851Z,99847.06
2022-12-14T18:18:23.948Z,99843.28
2022-12-14T18:21:00.345Z,99845.66
2022-12-14T18:23:28.959Z,99847.19
2022-12-14T18:25:59.161Z,99836.91
2022-12-14T18:28:25.763Z,99842.66
2022-12-14T18:30:56.131Z,99852.59
2022-12-14T18:33:25.545Z,99854.03
2022-12-14T18:35:53.830Z,99855.41
2022-12-14T18:38:21.121Z,99855.75
2022-12-14T18:40:50.608Z,99847.38
2022-12-14T18:43:28.366Z,99854.31
2022-12-14T18:45:56.290Z,99854.59
2022-12-14T18:48:24.004Z,99863.69
2022-12-14T18:50:53.168Z,99863.84
2022-12-14T18:53:22.145Z,99866.16
2022-12-14T18:55:49.255Z,99863.03
2022-12-14T18:58:19.194Z,99864.66
2022-12-14T19:00:46.023Z,99875.50
2022-12-14T19:03:15.000Z,99876.19
2022-12-14T19:05:43.822Z,99880.06
2022-12-14T19:08:11.171Z,99881.44
2022-12-14T19:10:40.884Z,99879.13
2022-12-14T19:13:09.525Z,99885.72
2022-12-14T19:15:36.216Z,99881.72
2022-12-14T19:18:02.730Z,99879.72
2022-12-14T19:20:29.827Z,99876.09
2022-12-14T19:22:56.698Z,99879.72
2022-12-14T19:25:24.247Z,99882.19
2022-12-14T19:30:39.193Z,99889.81
2022-12-14T19:33:05.985Z,99887.34
2022-12-14T19:35:32.468Z,99883.59
2022-12-14T19:37:59.114Z,99887.69
2022-12-14T19:40:26.216Z,99887.06
2022-12-14T19:42:53.065Z,99881.47
2022-12-14T19:45:19.721Z,99873.84
2022-12-14T19:47:46.501Z,99876.03
2022-12-14T19:50:14.813Z,99870.94
2022-12-14T19:52:42.582Z,99876.50
2022-12-14T19:55:09.495Z,99865.88
2022-12-14T19:57:37.398Z,99875.09
2022-12-14T20:00:05.451Z,99870.91
2022-12-14T20:02:37.357Z,99875.69
2022-12-14T20:05:05.189Z,99871.22
2022-12-14T20:07:31.709Z,99880.19
2022-12-14T20:09:58.137Z,99870.34
2022-12-14T20:12:24.884Z,99865.41
2022-12-14T20:14:51.460Z,99859.50
2022-12-14T20:17:19.400Z,99868.56
2022-12-14T20:19:46.036Z,99871.03
2022-12-14T20:22:14.826Z,99884.75
2022-12-14T20:24:42.684Z,99889.88
2022-12-14T20:27:09.170Z,99894.50
2022-12-14T20:29:37.166Z,99902.94
2022-12-14T20:32:03.733Z,99910.34
2022-12-14T20:34:30.724Z,99911.69
2022-12-14T20:36:57.530Z,99911.03
2022-12-14T20:39:24.058Z,99916.13
2022-12-14T20:41:50.763Z,99913.78
2022-12-14T20:44:17.914Z,99916.78
2022-12-14T20:46:46.003Z,99909.53
2022-12-14T20:49:16.096Z,99908.44
2022-12-14T20:51:44.327Z,99923.25
2022-12-14T20:54:14.912Z,99914.16
2022-12-14T20:56:41.914Z,99925.16
2022-12-14T20:59:09.618Z,99929.13
2022-12-14T21:01:41.212Z,99932.91
2022-12-14T21:04:08.438Z,99932.75
2022-12-14T21:06:40.520Z,99931.94
2022-12-14T21:09:11.908Z,99939.03
2022-12-14T21:12:08.809Z,99946.66
2022-12-14T21:14:43.559Z,99945.06
2022-12-14T21:17:10.943Z,99946.94
2022-12-14T21:19:37.496Z,99950.69
2022-12-14T21:22:10.233Z,99946.41
2022-12-14T21:25:01.813Z,99954.97
2022-12-14T21:27:26.367Z,99953.28
2022-12-14T21:29:53.358Z,99952.13
2022-12-14T21:32:21.077Z,99949.59
2022-12-14T21:34:47.996Z,99957.16
2022-12-14T21:37:15.327Z,99955.47
2022-12-14T21:39:42.045Z,99952.66
2022-12-14T21:42:12.773Z,99948.34
2022-12-14T21:44:40.993Z,99952.75
2022-12-14T21:47:11.577Z,99955.91
2022-12-14T21:49:39.993Z,99958.22
2022-12-14T21:52:07.678Z,99957.41
2022-12-14T21:54:34.939Z,99964.66
2022-12-14T21:57:21.231Z,99964.41
2022-12-14T21:59:47.666Z,99960.31
2022-12-14T22:02:15.558Z,99963.59
2022-12-14T22:04:46.708Z,99969.00
2022-12-14T22:07:15.194Z,99976.25
2022-12-14T22:09:41.790Z,99967.66
2022-12-14T22:12:08.682Z,99964.53
2022-12-14T22:14:35.595Z,99971.00
2022-12-14T22:17:02.289Z,99969.69
2022-12-14T22:19:29.054Z,99965.09
2022-12-14T22:21:55.782Z,99964.41
2022-12-14T22:24:23.728Z,99962.50
2022-12-14T22:26:51.106Z,99959.03
2022-12-14T22:29:18.824Z,99957.88
2022-12-14T22:31:45.859Z,99957.88
2022-12-14T22:34:17.230Z,99950.75
2022-12-14T22:36:44.177Z,99951.28
2022-12-14T22:39:10.666Z,99954.09
2022-12-14T22:41:37.665Z,99962.31
2022-12-14T22:44:05.335Z,99952.41
2022-12-14T22:46:33.089Z,99955.00
2022-12-14T22:49:04.365Z,99961.03
2022-12-14T22:51:31.028Z,99961.72
2022-12-14T22:53:57.712Z,99963.91
2022-12-14T22:56:46.220Z,99975.94
2022-12-14T22:59:17.279Z,99983.56
2022-12-14T23:01:49.650Z,99972.69
2022-12-14T23:04:17.018Z,99964.84
2022-12-14T23:06:43.704Z,99960.72
2022-12-14T23:09:28.424Z,99966.19
2022-12-14T23:12:21.253Z,99960.09
2022-12-14T23:15:07.131Z,99969.75
2022-12-14T23:17:52.558Z,99970.94
2022-12-14T23:20:37.667Z,99969.63
2022-12-14T23:23:25.390Z,99983.88
2022-12-14T23:26:10.564Z,99993.97
2022-12-14T23:28:56.075Z,99998.78
2022-12-14T23:31:41.378Z,99998.25
2022-12-14T23:34:26.552Z,99998.91
2022-12-14T23:37:16.346Z,99982.34
2022-12-14T23:40:04.857Z,99988.41
2022-12-14T23:42:49.863Z,99990.22
2022-12-14T23:45:35.133Z,99988.19
2022-12-14T23:48:20.017Z,99984.03
2022-12-14T23:51:05.170Z,99991.00
2022-12-14T23:53:50.458Z,99981.97
2022-12-14T23:56:35.659Z,99992.88
2022-12-14T23:59:22.694Z,99985.38
